D/T METAR WX W/DIR W/SPE G/SPE TEMP DEWP
25/05/20 17:20 EGPI 251620Z AUTO 13007KT 100V160 9999 BKN035/// SCT041/// 13/11 Q1029 RERA SE (130°) 8.1mph 13°C 11°C
25/05/20 16:50 EGPI 251550Z AUTO 12007KT 9999 BKN038/// SCT044/// 13/11 Q1029 RERA ESE (120°) 8.1mph 13°C 11°C
25/05/20 16:20 EGPI 251520Z AUTO 19007KT 130V230 7000 RA BKN046/// 13/10 Q1029 RA S (190°) 8.1mph 13°C 10°C
25/05/20 15:50 EGPI 251450Z AUTO 15012KT 120V180 9999 OVC045/// 13/09 Q1029 SSE (150°) 13.8mph 13°C 9°C
25/05/20 15:20 EGPI 251420Z AUTO 15014KT 9999 NCD 13/09 Q1028 SSE (150°) 16.1mph 13°C 9°C
25/05/20 14:50 EGPI 251350Z AUTO 15017KT 120V180 9999 NCD 14/09 Q1028 SSE (150°) 19.6mph 14°C 9°C
25/05/20 14:20 EGPI 251320Z AUTO 14016KT 120V180 9999 NCD 15/09 Q1028 SE (140°) 18.4mph 15°C 9°C
25/05/20 13:50 EGPI 251250Z AUTO 14013KT 100V180 9999 NCD 15/10 Q1028 SE (140°) 15.0mph 15°C 10°C
25/05/20 13:20 EGPI 251220Z AUTO 15013KT 110V200 9999 NCD 15/10 Q1029 SSE (150°) 15.0mph 15°C 10°C
25/05/20 12:50 EGPI 251150Z AUTO 16016KT 130V190 9999 NCD 14/09 Q1029 SSE (160°) 18.4mph 14°C 9°C
25/05/20 12:20 EGPI 251120Z 15016KT 9999 FEW025 14/09 Q1029 SSE (150°) 18.4mph 14°C 9°C
25/05/20 11:50 EGPI 251050Z 14017KT 110V200 9999 FEW025 13/09 Q1029 SE (140°) 19.6mph 13°C 9°C
25/05/20 11:20 EGPI 251020Z 15016KT 120V180 9999 FEW025 14/09 Q1029 SSE (150°) 18.4mph 14°C 9°C
25/05/20 10:50 EGPI 250950Z 15015KT 9999 FEW025 14/09 Q1029 SSE (150°) 17.3mph 14°C 9°C
25/05/20 10:20 EGPI 250920Z 16013KT 120V200 9999 FEW022 15/10 Q1029 SSE (160°) 15.0mph 15°C 10°C
25/05/20 09:50 EGPI 250850Z 15013KT 9999 FEW020 14/09 Q1029 SSE (150°) 15.0mph 14°C 9°C
25/05/20 09:20 EGPI 250820Z 14013KT 9999 FEW020 13/09 Q1030 SE (140°) 15.0mph 13°C 9°C
25/05/20 08:50 EGPI 250750Z 14012KT 110V170 CAVOK 13/09 Q1030 SE (140°) 13.8mph 13°C 9°C
25/05/20 08:20 EGPI 250720Z 15013KT 120V180 CAVOK 12/09 Q1030 SSE (150°) 15.0mph 12°C 9°C
25/05/20 07:50 EGPI 250650Z 14012KT CAVOK 12/09 Q1030 SE (140°) 13.8mph 12°C 9°C
25/05/20 07:20 EGPI 250620Z AUTO 13009KT 100V160 9999 NCD 11/10 Q1030 SE (130°) 10.4mph 11°C 10°C
25/05/20 06:50 EGPI 250550Z AUTO 14010KT 9999 NCD 10/09 Q1030 SE (140°) 11.5mph 10°C 9°C
25/05/20 06:20 EGPI 250520Z AUTO 13007KT 090V150 9999 NCD 10/09 Q1030 SE (130°) 8.1mph 10°C 9°C
25/05/20 05:50 EGPI 250450Z AUTO 13007KT 9999 NCD 08/08 Q1030 SE (130°) 8.1mph 8°C 8°C
25/05/20 05:20 EGPI 250420Z AUTO 12008KT 9999 NCD 08/08 Q1030 ESE (120°) 9.2mph 8°C 8°C
25/05/20 04:50 EGPI 250350Z AUTO 12006KT 9999 NCD 07/07 Q1030 ESE (120°) 6.9mph 7°C 7°C
25/05/20 04:20 EGPI 250320Z AUTO 12008KT 9999 NCD 08/08 Q1030 ESE (120°) 9.2mph 8°C 8°C
25/05/20 03:50 EGPI 250250Z AUTO 12006KT 9999 NCD 08/07 Q1030 ESE (120°) 6.9mph 8°C 7°C
25/05/20 03:20 EGPI 250220Z AUTO 12006KT 9999 NCD 08/07 Q1030 ESE (120°) 6.9mph 8°C 7°C
25/05/20 02:50 EGPI 250150Z AUTO 13007KT 9999 NCD 08/07 Q1030 SE (130°) 8.1mph 8°C 7°C
25/05/20 02:20 EGPI 250120Z AUTO 13008KT 9999 NCD 08/08 Q1030 SE (130°) 9.2mph 8°C 8°C
25/05/20 01:50 EGPI 250050Z AUTO 13009KT 9999 NCD 09/08 Q1030 SE (130°) 10.4mph 9°C 8°C
25/05/20 01:20 EGPI 250020Z AUTO 13011KT 9999 NCD 09/08 Q1030 SE (130°) 12.7mph 9°C 8°C
25/05/20 00:50 EGPI 242350Z AUTO 13008KT 9999 NCD 08/07 Q1031 SE (130°) 9.2mph 8°C 7°C
25/05/20 00:20 EGPI 242320Z AUTO 13007KT 9999 NCD 07/06 Q1030 SE (130°) 8.1mph 7°C 6°C
24/05/20 23:50 EGPI 242250Z AUTO 12006KT 9999 NCD 07/07 Q1030 ESE (120°) 6.9mph 7°C 7°C
24/05/20 23:20 EGPI 242220Z AUTO 12007KT 9999 NCD 07/07 Q1031 ESE (120°) 8.1mph 7°C 7°C
24/05/20 22:50 EGPI 242150Z AUTO 12006KT 090V150 9999 NCD 07/06 Q1030 ESE (120°) 6.9mph 7°C 6°C
24/05/20 22:20 EGPI 242120Z AUTO 13005KT 9999 NCD 07/06 Q1030 SE (130°) 5.8mph 7°C 6°C
24/05/20 21:50 EGPI 242050Z AUTO VRB03KT 9999 NCD 09/06 Q1030 N (0°) 3.5mph 9°C 6°C
24/05/20 21:20 EGPI 242020Z AUTO 34001KT 9999 NCD 11/08 Q1030 NNW (340°) 1.2mph 11°C 8°C
24/05/20 20:50 EGPI 241950Z AUTO VRB02KT 9999 FEW039/// 12/09 Q1030 N (0°) 2.3mph 12°C 9°C
24/05/20 20:20 EGPI 241920Z AUTO 27007KT 240V300 9999 BKN039/// SCT044/// 13/09 Q1030 W (270°) 8.1mph 13°C 9°C
24/05/20 19:50 EGPI 241850Z AUTO 26007KT 210V310 9999 SCT042/// 13/09 Q1030 W (260°) 8.1mph 13°C 9°C
24/05/20 19:20 EGPI 241820Z AUTO 28009KT 9999 NCD 13/09 Q1030 W (280°) 10.4mph 13°C 9°C
24/05/20 18:50 EGPI 241750Z AUTO 27008KT 220V290 9999 FEW048/// 13/09 Q1029 W (270°) 9.2mph 13°C 9°C
24/05/20 18:20 EGPI 241720Z AUTO 27011KT 240V300 9999 NCD 14/10 Q1029 W (270°) 12.7mph 14°C 10°C
24/05/20 17:50 EGPI 241650Z AUTO 28013KT 9999 NCD 13/10 Q1029 W (280°) 15.0mph 13°C 10°C
24/05/20 17:20 EGPI 241620Z 28018KT 9999 FEW025 14/10 Q1029 W (280°) 20.7mph 14°C 10°C
24/05/20 16:50 EGPI 241550Z 27014KT 9999 FEW024 14/10 Q1029 W (270°) 16.1mph 14°C 10°C
24/05/20 15:50 EGPI 241450Z AUTO 28011KT 9999 FEW021/// 13/10 Q1029 W (280°) 12.7mph 13°C 10°C
24/05/20 15:20 EGPI 241420Z AUTO 27012KT 9999 BKN018/// 13/10 Q1029 W (270°) 13.8mph 13°C 10°C
24/05/20 14:50 EGPI 241350Z 27014KT 9999 FEW014 BKN018 14/11 Q1029 W (270°) 16.1mph 14°C 11°C
24/05/20 14:20 EGPI 241320Z 25009KT 9999 FEW008 BKN018 12/10 Q1029 WSW (250°) 10.4mph 12°C 10°C
24/05/20 13:50 EGPI 241250Z 26013KT 230V290 8000 FEW008 BKN017 12/11 Q1028 W (260°) 15.0mph 12°C 11°C
24/05/20 12:50 EGPI 241150Z AUTO 25013KT 7000 FEW005/// BKN014/// 12/11 Q1027 WSW (250°) 15.0mph 12°C 11°C
24/05/20 12:20 EGPI 241120Z AUTO 26013KT 6000 SCT005/// BKN017/// 12/11 Q1027 W (260°) 15.0mph 12°C 11°C
24/05/20 11:50 EGPI 241050Z AUTO 26016KT 5000 BR BKN004/// BKN013/// 11/11 Q1026 BR W (260°) 18.4mph 11°C 11°C
24/05/20 11:20 EGPI 241020Z AUTO 26018KT 3400 BR BKN004/// BKN017/// 11/11 Q1026 BR W (260°) 20.7mph 11°C 11°C
24/05/20 10:50 EGPI 240950Z AUTO 26018KT 4100 BR FEW005/// BKN017/// 11/11 Q1025 BR W (260°) 20.7mph 11°C 11°C
24/05/20 10:20 EGPI 240920Z AUTO 26021KT 4800 BR BKN005/// BKN021/// 11/11 Q1024 BR W (260°) 24.2mph 11°C 11°C
24/05/20 09:50 EGPI 240850Z AUTO 26018KT 5000 BR BKN006/// BKN020/// 11/11 Q1024 BR W (260°) 20.7mph 11°C 11°C
24/05/20 09:20 EGPI 240820Z AUTO 27017KT 4400 BR OVC006/// 11/11 Q1023 BR W (270°) 19.6mph 11°C 11°C
24/05/20 08:50 EGPI 240750Z AUTO 27018KT 230V290 4300 BR OVC006/// 11/11 Q1023 BR W (270°) 20.7mph 11°C 11°C
24/05/20 08:20 EGPI 240720Z AUTO 27016KT 4000 BR OVC006/// 11/11 Q1023 BR W (270°) 18.4mph 11°C 11°C
24/05/20 07:50 EGPI 240650Z AUTO 27016KT 3700 BR FEW003/// OVC006/// 11/11 Q1022 BR W (270°) 18.4mph 11°C 11°C
24/05/20 07:20 EGPI 240620Z AUTO 27017KT 3300 BR SCT003/// OVC006/// 11/11 Q1022 BR W (270°) 19.6mph 11°C 11°C
24/05/20 06:50 EGPI 240550Z AUTO 26016KT 2100 BR BKN003/// BKN006/// 11/11 Q1021 BR W (260°) 18.4mph 11°C 11°C
24/05/20 06:20 EGPI 240520Z AUTO 26015KT 230V290 2100 BR OVC003/// 11/10 Q1021 BR W (260°) 17.3mph 11°C 10°C
24/05/20 05:50 EGPI 240450Z AUTO 26015KT 4200 BR OVC006/// 11/11 Q1020 BR W (260°) 17.3mph 11°C 11°C
24/05/20 05:20 EGPI 240420Z AUTO 26016KT 5000 BR OVC006/// 11/11 Q1020 BR W (260°) 18.4mph 11°C 11°C
24/05/20 04:50 EGPI 240350Z AUTO 26018KT 5000 BR OVC006/// 11/11 Q1020 BR W (260°) 20.7mph 11°C 11°C
24/05/20 04:20 EGPI 240320Z AUTO 27017KT 5000 BR OVC003/// 11/11 Q1019 BR W (270°) 19.6mph 11°C 11°C
24/05/20 03:50 EGPI 240250Z AUTO 26018KT 4200 BR OVC003/// 11/11 Q1019 RERA BR W (260°) 20.7mph 11°C 11°C
24/05/20 03:20 EGPI 240220Z AUTO 26017KT 1500 BR OVC003/// 11/10 Q1018 RERA BR W (260°) 19.6mph 11°C 10°C
24/05/20 02:50 EGPI 240150Z AUTO 26017KT 3700 BR OVC003/// 11/10 Q1018 REDZ BR W (260°) 19.6mph 11°C 10°C
24/05/20 02:20 EGPI 240120Z AUTO 27015KT 2000 -DZ BKN003/// SCT018/// 11/10 Q1018 -DZ W (270°) 17.3mph 11°C 10°C
24/05/20 01:50 EGPI 240050Z AUTO 26015KT 4400 -DZ OVC005/// 11/10 Q1018 -DZ W (260°) 17.3mph 11°C 10°C
24/05/20 01:20 EGPI 240020Z AUTO 26015KT 4000 -RADZ BKN005/// 11/10 Q1017 -RA -DZ W (260°) 17.3mph 11°C 10°C
24/05/20 00:50 EGPI 232350Z AUTO 26014KT 5000 -DZ OVC005/// 11/10 Q1017 -DZ W (260°) 16.1mph 11°C 10°C
24/05/20 00:20 EGPI 232320Z AUTO 25012KT 6000 BKN006/// 11/10 Q1017 WSW (250°) 13.8mph 11°C 10°C
23/05/20 23:50 EGPI 232250Z AUTO 25013KT 7000 BKN007/// 11/10 Q1017 WSW (250°) 15.0mph 11°C 10°C
23/05/20 23:20 EGPI 232220Z AUTO 24013KT 6000 BKN007/// BKN021/// 10/10 Q1017 REDZ WSW (240°) 15.0mph 10°C 10°C
23/05/20 22:50 EGPI 232150Z AUTO 24015KT 5000 BR BKN006/// BKN020/// 10/10 Q1016 REDZ BR WSW (240°) 17.3mph 10°C 10°C
23/05/20 22:20 EGPI 232120Z AUTO 26015KT 8000 -DZ BKN012/// SCT021/// 10/09 Q1016 -DZ W (260°) 17.3mph 10°C 9°C
23/05/20 21:50 EGPI 232050Z AUTO 25017KT 2900 -DZ SCT010/// SCT021/// 10/09 Q1016 -DZ WSW (250°) 19.6mph 10°C 9°C
23/05/20 21:20 EGPI 232020Z AUTO 26015KT 7000 SCT012/// SCT021/// 11/09 Q1016 W (260°) 17.3mph 11°C 9°C
23/05/20 20:50 EGPI 231950Z AUTO 26020KT 8000 BKN031/// SCT045/// 11/09 Q1016 W (260°) 23.0mph 11°C 9°C
23/05/20 20:20 EGPI 231920Z AUTO 26017KT 220V280 8000 FEW028/// BKN044/// 11/08 Q1015 W (260°) 19.6mph 11°C 8°C
23/05/20 19:50 EGPI 231850Z AUTO 26019KT 9999 BKN037/// 11/08 Q1015 W (260°) 21.9mph 11°C 8°C
23/05/20 19:20 EGPI 231820Z AUTO 26022KT 9000 SCT037/// 11/08 Q1015 W (260°) 25.3mph 11°C 8°C
23/05/20 18:50 EGPI 231750Z AUTO 26023KT 9000 SCT039/// 11/08 Q1014 W (260°) 26.5mph 11°C 8°C
23/05/20 18:20 EGPI 231720Z AUTO 25024KT 9000 SCT037/// 11/08 Q1014 WSW (250°) 27.6mph 11°C 8°C
23/05/20 17:50 EGPI 231650Z AUTO 25024KT 9000 FEW025/// BKN036/// 11/08 Q1013 WSW (250°) 27.6mph 11°C 8°C
23/05/20 17:20 EGPI 231620Z AUTO 26025KT 230V290 9999 BKN023/// SCT033/// 11/08 Q1013 W (260°) 28.8mph 11°C 8°C
23/05/20 16:50 EGPI 231550Z AUTO 26025KT 9000 BKN021/// SCT026/// 11/08 Q1012 W (260°) 28.8mph 11°C 8°C